Akebono — JG5644 — position and weather

sailwx.info

Track history (hours):
 
Tides and Currents Weather Stations Pressure Air Temp Water Temp Dewpoint Dewpoint Depression Visibility Wind Speed Wind Dir Waves Ship Positions

Akebono

Last reported at 2016-Feb-13 12:33 UTC. Time now 2016-Feb-13 12:55 UTC.
Position N 35°27' E 139°39'.

Length 33 m; draft 4.4 m.

Type: Tug. MMSI: 431000233.

Date/timePositionNaut miles runAvg speedWind from/ knotsBaromVisibWave heightAir tempDewpointWater temp
2016-Feb-13 12:33N 35°27' E 139°39'1 0.3
2016-Feb-13 08:33N 35°27' E 139°40'4 4.3
2016-Feb-13 07:34N 35°29' E 139°45'1 0.6
2016-Feb-13 06:34N 35°29' E 139°46'1 0.7
2016-Feb-13 05:33N 35°30' E 139°46'6 5.7
2016-Feb-13 04:33N 35°27' E 139°39'0 0.0
2016-Feb-13 03:33N 35°27' E 139°39'0 0.0
2016-Feb-13 02:33N 35°27' E 139°39'0 0.0
2016-Feb-13 01:33N 35°27' E 139°39'0 0.0
2016-Feb-13 00:33N 35°27' E 139°39'2 1.8
2016-Feb-12 23:33N 35°28' E 139°42'1 0.9
2016-Feb-12 22:33N 35°27' E 139°41'1 1.1
2016-Feb-12 21:33N 35°26' E 139°42'2 2.1
2016-Feb-12 20:34N 35°27' E 139°39'0 0.0
2016-Feb-12 05:33N 35°27' E 139°39'3 3.2
2016-Feb-12 04:33N 35°27' E 139°43'4 4.4
2016-Feb-12 03:33N 35°30' E 139°47'1 0.9
2016-Feb-12 02:33N 35°31' E 139°46'3 2.6
2016-Feb-12 01:33N 35°28' E 139°46'0 0.0
2016-Feb-12 00:33N 35°28' E 139°46'2 1.7
2016-Feb-11 23:33N 35°28' E 139°48'6 6.1
2016-Feb-11 22:33N 35°25' E 139°41'1 0.7
2016-Feb-11 21:33N 35°25' E 139°42'2 2.5
2016-Feb-11 20:33N 35°27' E 139°39'0 0.0
2016-Feb-11 07:10N 35°27' E 139°39'0 0.0
2016-Feb-11 06:33N 35°27' E 139°39'0 0.0
2016-Feb-11 05:33N 35°27' E 139°39'1 1.3
2016-Feb-11 04:33N 35°27' E 139°41'1 1.0
2016-Feb-11 03:33N 35°27' E 139°42'0 0.0
2016-Feb-11 02:34N 35°27' E 139°42'6 5.5
2016-Feb-11 01:33N 35°31' E 139°46'2 1.9
2016-Feb-11 00:34N 35°30' E 139°47'5 4.9
2016-Feb-10 23:34N 35°27' E 139°42'3 2.6
2016-Feb-10 22:34N 35°27' E 139°39'0 0.0
2016-Feb-09 21:33N 35°27' E 139°39'5 4.6
2016-Feb-09 20:33N 35°29' E 139°44'1 1.4
2016-Feb-09 19:33N 35°28' E 139°44'5 4.9
2016-Feb-09 18:34N 35°24' E 139°41'3 3.2
2016-Feb-09 17:34N 35°27' E 139°41'2 1.6
2016-Feb-09 16:34N 35°27' E 139°39'0 0.0
2016-Feb-09 15:33N 35°27' E 139°39'0 0.0
2016-Feb-09 14:33N 35°27' E 139°39'0 0.0
2016-Feb-09 13:34N 35°27' E 139°39'0 0.0
2016-Feb-09 12:33N 35°27' E 139°39'1 0.5
2016-Feb-09 11:33N 35°27' E 139°40'4 3.7
2016-Feb-09 10:33N 35°23' E 139°41'2 2.3
2016-Feb-09 09:33N 35°25' E 139°42'0 0.4
2016-Feb-09 08:33N 35°26' E 139°42'4 3.7
2016-Feb-09 07:33N 35°24' E 139°38'0 0.4
2016-Feb-09 06:33N 35°24' E 139°38'0 0.1
2016-Feb-09 05:33N 35°24' E 139°38'3 2.9
2016-Feb-09 04:33N 35°24' E 139°42'4 3.9
2016-Feb-09 03:33N 35°27' E 139°39'0 0.0
2016-Feb-09 02:33N 35°27' E 139°39'0 0.0
2016-Feb-09 01:33N 35°27' E 139°39'0 0.0
2016-Feb-09 00:33N 35°27' E 139°39'0 0.0
2016-Feb-08 23:33N 35°27' E 139°39'0 0.0
2016-Feb-08 22:33N 35°27' E 139°39'2 2.0
2016-Feb-08 21:34N 35°26' E 139°42'2 2.2
2016-Feb-08 20:33N 35°27' E 139°39'0 0.0
2016-Feb-08 07:34N 35°27' E 139°39'2 2.4
2016-Feb-08 06:33N 35°26' E 139°42'0 0.3
2016-Feb-08 05:33N 35°26' E 139°42'0 0.0
2016-Feb-08 04:33N 35°26' E 139°42'0 0.0
2016-Feb-08 03:33N 35°26' E 139°42'2 2.1
2016-Feb-08 02:33N 35°28' E 139°43'1 1.1
2016-Feb-08 01:33N 35°27' E 139°42'0 0.0
2016-Feb-08 00:33N 35°27' E 139°42'1 0.5
2016-Feb-07 23:33N 35°27' E 139°42'2 1.9
2016-Feb-07 22:34N 35°25' E 139°43'3 3.4
2016-Feb-07 21:33N 35°27' E 139°39'0 0.0
2016-Feb-06 10:22N 35°27' E 139°39'4 4.6
2016-Feb-06 09:33N 35°24' E 139°41'1 0.8
2016-Feb-06 08:33N 35°23' E 139°41'3 2.6
2016-Feb-06 07:33N 35°26' E 139°42'0 0.0
2016-Feb-06 06:33N 35°26' E 139°42'1 0.9
2016-Feb-06 05:34N 35°26' E 139°41'1 1.1
2016-Feb-06 04:34N 35°28' E 139°41'0 0.0
2016-Feb-06 03:34N 35°28' E 139°41'0 0.1
2016-Feb-06 02:33N 35°27' E 139°40'2 2.2
2016-Feb-06 01:33N 35°28' E 139°43'1 1.1
2016-Feb-06 00:33N 35°27' E 139°43'3 3.4
2016-Feb-05 23:33N 35°27' E 139°39'0 0.0
2016-Feb-05 22:33N 35°27' E 139°39'0 0.0
2016-Feb-04 22:33N 35°27' E 139°39'0 0.0
2016-Feb-04 21:33N 35°27' E 139°39'1 1.3
2016-Feb-04 20:33N 35°27' E 139°41'1 1.0
2016-Feb-04 19:33N 35°28' E 139°40'0 0.0
2016-Feb-04 18:33N 35°28' E 139°40'0 0.0
2016-Feb-04 17:33N 35°28' E 139°40'0 0.0
2016-Feb-04 16:33N 35°28' E 139°40'0 0.0
2016-Feb-04 15:33N 35°28' E 139°40'0 0.0
2016-Feb-04 14:33N 35°28' E 139°40'0 0.0
2016-Feb-04 13:33N 35°28' E 139°40'3 2.6
2016-Feb-04 12:33N 35°26' E 139°43'1 0.8
2016-Feb-04 11:33N 35°26' E 139°42'0 0.0
2016-Feb-04 10:33N 35°26' E 139°42'0 0.3
2016-Feb-04 09:33N 35°26' E 139°42'2 2.2
2016-Feb-04 08:34N 35°28' E 139°40'2 1.5
2016-Feb-04 07:33N 35°27' E 139°39'0 0.0
2016-Feb-04 06:33N 35°27' E 139°39'0 0.0
2016-Feb-04 05:33N 35°27' E 139°39'0 0.0
2016-Feb-04 04:33N 35°27' E 139°39'0 0.0
2016-Feb-04 03:33N 35°27' E 139°39'0 0.0
2016-Feb-04 02:33N 35°27' E 139°39'1 1.4
2016-Feb-04 01:33N 35°26' E 139°41'1 1.5
2016-Feb-04 00:33N 35°27' E 139°39'0 0.0
2016-Feb-03 23:33N 35°27' E 139°39'0 0.0
2016-Feb-03 22:33N 35°27' E 139°39'  
Track history (hours):
 
Tides and Currents Weather Stations Pressure Air Temp Water Temp Dewpoint Dewpoint Depression Visibility Wind Speed Wind Dir Waves Ship Positions

Akebono

Last reported at 2016-Feb-13 12:33 UTC. Time now 2016-Feb-13 12:55 UTC.
Position N 35°27' E 139°39'.

Length 33 m; draft 4.4 m.

Type: Tug. MMSI: 431000233.

Date/timePositionNaut miles runAvg speedWind from/ knotsBaromVisibWave heightAir tempDewpointWater temp
2016-Feb-13 12:33N 35°27' E 139°39'1 0.3
2016-Feb-13 08:33N 35°27' E 139°40'4 4.3
2016-Feb-13 07:34N 35°29' E 139°45'1 0.6
2016-Feb-13 06:34N 35°29' E 139°46'1 0.7
2016-Feb-13 05:33N 35°30' E 139°46'6 5.7
2016-Feb-13 04:33N 35°27' E 139°39'0 0.0
2016-Feb-13 03:33N 35°27' E 139°39'0 0.0
2016-Feb-13 02:33N 35°27' E 139°39'0 0.0
2016-Feb-13 01:33N 35°27' E 139°39'0 0.0
2016-Feb-13 00:33N 35°27' E 139°39'2 1.8
2016-Feb-12 23:33N 35°28' E 139°42'1 0.9
2016-Feb-12 22:33N 35°27' E 139°41'1 1.1
2016-Feb-12 21:33N 35°26' E 139°42'2 2.1
2016-Feb-12 20:34N 35°27' E 139°39'0 0.0
2016-Feb-12 05:33N 35°27' E 139°39'3 3.2
2016-Feb-12 04:33N 35°27' E 139°43'4 4.4
2016-Feb-12 03:33N 35°30' E 139°47'1 0.9
2016-Feb-12 02:33N 35°31' E 139°46'3 2.6
2016-Feb-12 01:33N 35°28' E 139°46'0 0.0
2016-Feb-12 00:33N 35°28' E 139°46'2 1.7
2016-Feb-11 23:33N 35°28' E 139°48'6 6.1
2016-Feb-11 22:33N 35°25' E 139°41'1 0.7
2016-Feb-11 21:33N 35°25' E 139°42'2 2.5
2016-Feb-11 20:33N 35°27' E 139°39'0 0.0
2016-Feb-11 07:10N 35°27' E 139°39'0 0.0
2016-Feb-11 06:33N 35°27' E 139°39'0 0.0
2016-Feb-11 05:33N 35°27' E 139°39'1 1.3
2016-Feb-11 04:33N 35°27' E 139°41'1 1.0
2016-Feb-11 03:33N 35°27' E 139°42'0 0.0
2016-Feb-11 02:34N 35°27' E 139°42'6 5.5
2016-Feb-11 01:33N 35°31' E 139°46'2 1.9
2016-Feb-11 00:34N 35°30' E 139°47'5 4.9
2016-Feb-10 23:34N 35°27' E 139°42'3 2.6
2016-Feb-10 22:34N 35°27' E 139°39'0 0.0
2016-Feb-09 21:33N 35°27' E 139°39'5 4.6
2016-Feb-09 20:33N 35°29' E 139°44'1 1.4
2016-Feb-09 19:33N 35°28' E 139°44'5 4.9
2016-Feb-09 18:34N 35°24' E 139°41'3 3.2
2016-Feb-09 17:34N 35°27' E 139°41'2 1.6
2016-Feb-09 16:34N 35°27' E 139°39'0 0.0
2016-Feb-09 15:33N 35°27' E 139°39'0 0.0
2016-Feb-09 14:33N 35°27' E 139°39'0 0.0
2016-Feb-09 13:34N 35°27' E 139°39'0 0.0
2016-Feb-09 12:33N 35°27' E 139°39'1 0.5
2016-Feb-09 11:33N 35°27' E 139°40'4 3.7
2016-Feb-09 10:33N 35°23' E 139°41'2 2.3
2016-Feb-09 09:33N 35°25' E 139°42'0 0.4
2016-Feb-09 08:33N 35°26' E 139°42'4 3.7
2016-Feb-09 07:33N 35°24' E 139°38'0 0.4
2016-Feb-09 06:33N 35°24' E 139°38'0 0.1
2016-Feb-09 05:33N 35°24' E 139°38'3 2.9
2016-Feb-09 04:33N 35°24' E 139°42'4 3.9
2016-Feb-09 03:33N 35°27' E 139°39'0 0.0
2016-Feb-09 02:33N 35°27' E 139°39'0 0.0
2016-Feb-09 01:33N 35°27' E 139°39'0 0.0
2016-Feb-09 00:33N 35°27' E 139°39'0 0.0
2016-Feb-08 23:33N 35°27' E 139°39'0 0.0
2016-Feb-08 22:33N 35°27' E 139°39'2 2.0
2016-Feb-08 21:34N 35°26' E 139°42'2 2.2
2016-Feb-08 20:33N 35°27' E 139°39'0 0.0
2016-Feb-08 07:34N 35°27' E 139°39'2 2.4
2016-Feb-08 06:33N 35°26' E 139°42'0 0.3
2016-Feb-08 05:33N 35°26' E 139°42'0 0.0
2016-Feb-08 04:33N 35°26' E 139°42'0 0.0
2016-Feb-08 03:33N 35°26' E 139°42'2 2.1
2016-Feb-08 02:33N 35°28' E 139°43'1 1.1
2016-Feb-08 01:33N 35°27' E 139°42'0 0.0
2016-Feb-08 00:33N 35°27' E 139°42'1 0.5
2016-Feb-07 23:33N 35°27' E 139°42'2 1.9
2016-Feb-07 22:34N 35°25' E 139°43'3 3.4
2016-Feb-07 21:33N 35°27' E 139°39'0 0.0
2016-Feb-06 10:22N 35°27' E 139°39'4 4.6
2016-Feb-06 09:33N 35°24' E 139°41'1 0.8
2016-Feb-06 08:33N 35°23' E 139°41'3 2.6
2016-Feb-06 07:33N 35°26' E 139°42'0 0.0
2016-Feb-06 06:33N 35°26' E 139°42'1 0.9
2016-Feb-06 05:34N 35°26' E 139°41'1 1.1
2016-Feb-06 04:34N 35°28' E 139°41'0 0.0
2016-Feb-06 03:34N 35°28' E 139°41'0 0.1
2016-Feb-06 02:33N 35°27' E 139°40'2 2.2
2016-Feb-06 01:33N 35°28' E 139°43'1 1.1
2016-Feb-06 00:33N 35°27' E 139°43'3 3.4
2016-Feb-05 23:33N 35°27' E 139°39'0 0.0
2016-Feb-05 22:33N 35°27' E 139°39'0 0.0
2016-Feb-04 22:33N 35°27' E 139°39'0 0.0
2016-Feb-04 21:33N 35°27' E 139°39'1 1.3
2016-Feb-04 20:33N 35°27' E 139°41'1 1.0
2016-Feb-04 19:33N 35°28' E 139°40'0 0.0
2016-Feb-04 18:33N 35°28' E 139°40'0 0.0
2016-Feb-04 17:33N 35°28' E 139°40'0 0.0
2016-Feb-04 16:33N 35°28' E 139°40'0 0.0
2016-Feb-04 15:33N 35°28' E 139°40'0 0.0
2016-Feb-04 14:33N 35°28' E 139°40'0 0.0
2016-Feb-04 13:33N 35°28' E 139°40'3 2.6
2016-Feb-04 12:33N 35°26' E 139°43'1 0.8
2016-Feb-04 11:33N 35°26' E 139°42'0 0.0
2016-Feb-04 10:33N 35°26' E 139°42'0 0.3
2016-Feb-04 09:33N 35°26' E 139°42'2 2.2
2016-Feb-04 08:34N 35°28' E 139°40'2 1.5
2016-Feb-04 07:33N 35°27' E 139°39'0 0.0
2016-Feb-04 06:33N 35°27' E 139°39'0 0.0
2016-Feb-04 05:33N 35°27' E 139°39'0 0.0
2016-Feb-04 04:33N 35°27' E 139°39'0 0.0
2016-Feb-04 03:33N 35°27' E 139°39'0 0.0
2016-Feb-04 02:33N 35°27' E 139°39'1 1.4
2016-Feb-04 01:33N 35°26' E 139°41'1 1.5
2016-Feb-04 00:33N 35°27' E 139°39'0 0.0
2016-Feb-03 23:33N 35°27' E 139°39'0 0.0
2016-Feb-03 22:33N 35°27' E 139°39'  

Dump ship's entire track history